sensor_id;sensor_type;location;lat;lon;timestamp;temperature;humidity
19058;DHT22;9662;53.612;9.914;2022-09-24T00:02:24;15.20;99.90
19058;DHT22;9662;53.612;9.914;2022-09-24T00:04:52;15.20;99.90
19058;DHT22;9662;53.612;9.914;2022-09-24T00:07:18;15.20;99.90
19058;DHT22;9662;53.612;9.914;2022-09-24T00:09:45;15.20;99.90
19058;DHT22;9662;53.612;9.914;2022-09-24T00:12:12;15.20;99.90
19058;DHT22;9662;53.612;9.914;2022-09-24T00:14:39;15.20;99.90
19058;DHT22;9662;53.612;9.914;2022-09-24T00:17:06;15.20;99.90
19058;DHT22;9662;53.612;9.914;2022-09-24T00:19:32;15.10;99.90
19058;DHT22;9662;53.612;9.914;2022-09-24T00:22:00;15.10;99.90
19058;DHT22;9662;53.612;9.914;2022-09-24T00:24:27;15.10;99.90
19058;DHT22;9662;53.612;9.914;2022-09-24T00:27:11;15.00;99.90
19058;DHT22;9662;53.612;9.914;2022-09-24T00:29:38;15.10;99.90
19058;DHT22;9662;53.612;9.914;2022-09-24T00:32:05;15.00;99.90
19058;DHT22;9662;53.612;9.914;2022-09-24T00:34:32;15.10;99.90
19058;DHT22;9662;53.612;9.914;2022-09-24T00:37:00;15.00;99.90
19058;DHT22;9662;53.612;9.914;2022-09-24T00:39:27;15.10;99.90
19058;DHT22;9662;53.612;9.914;2022-09-24T00:41:54;15.00;99.90
19058;DHT22;9662;53.612;9.914;2022-09-24T00:44:46;15.10;99.90
19058;DHT22;9662;53.612;9.914;2022-09-24T00:47:14;15.10;99.90
19058;DHT22;9662;53.612;9.914;2022-09-24T00:49:44;15.10;99.90
19058;DHT22;9662;53.612;9.914;2022-09-24T00:52:14;15.10;99.90
19058;DHT22;9662;53.612;9.914;2022-09-24T00:54:41;15.10;99.90
19058;DHT22;9662;53.612;9.914;2022-09-24T00:57:10;15.10;99.90
19058;DHT22;9662;53.612;9.914;2022-09-24T00:59:38;15.00;99.90
19058;DHT22;9662;53.612;9.914;2022-09-24T01:02:06;15.00;99.90
19058;DHT22;9662;53.612;9.914;2022-09-24T01:04:33;15.00;99.90
19058;DHT22;9662;53.612;9.914;2022-09-24T01:06:59;15.00;99.90
19058;DHT22;9662;53.612;9.914;2022-09-24T01:09:28;15.00;99.90
19058;DHT22;9662;53.612;9.914;2022-09-24T01:12:03;15.00;99.90
19058;DHT22;9662;53.612;9.914;2022-09-24T01:14:55;15.00;99.90
19058;DHT22;9662;53.612;9.914;2022-09-24T01:17:29;15.00;99.90
19058;DHT22;9662;53.612;9.914;2022-09-24T01:20:18;15.00;99.90
19058;DHT22;9662;53.612;9.914;2022-09-24T01:23:03;15.00;99.90
19058;DHT22;9662;53.612;9.914;2022-09-24T01:25:41;15.00;99.90
19058;DHT22;9662;53.612;9.914;2022-09-24T01:28:21;15.00;99.90
19058;DHT22;9662;53.612;9.914;2022-09-24T01:30:58;15.00;99.90
19058;DHT22;9662;53.612;9.914;2022-09-24T01:33:27;15.00;99.90
19058;DHT22;9662;53.612;9.914;2022-09-24T01:35:58;15.00;99.90
19058;DHT22;9662;53.612;9.914;2022-09-24T01:38:34;15.00;99.90
19058;DHT22;9662;53.612;9.914;2022-09-24T01:41:05;15.00;99.90
19058;DHT22;9662;53.612;9.914;2022-09-24T01:43:33;14.90;99.90
19058;DHT22;9662;53.612;9.914;2022-09-24T01:46:03;14.90;99.90
19058;DHT22;9662;53.612;9.914;2022-09-24T01:48:30;14.90;99.90
19058;DHT22;9662;53.612;9.914;2022-09-24T01:51:00;14.90;99.90
19058;DHT22;9662;53.612;9.914;2022-09-24T01:53:31;15.00;99.90
19058;DHT22;9662;53.612;9.914;2022-09-24T01:56:03;15.00;99.90
19058;DHT22;9662;53.612;9.914;2022-09-24T01:58:34;15.00;99.90
19058;DHT22;9662;53.612;9.914;2022-09-24T02:01:06;15.00;99.90
19058;DHT22;9662;53.612;9.914;2022-09-24T02:03:37;15.00;99.90
19058;DHT22;9662;53.612;9.914;2022-09-24T02:06:11;15.00;99.90
19058;DHT22;9662;53.612;9.914;2022-09-24T02:08:42;14.90;99.90
19058;DHT22;9662;53.612;9.914;2022-09-24T02:11:11;15.00;99.90
19058;DHT22;9662;53.612;9.914;2022-09-24T02:13:42;15.00;99.90
19058;DHT22;9662;53.612;9.914;2022-09-24T02:16:13;15.00;99.90
19058;DHT22;9662;53.612;9.914;2022-09-24T02:18:45;15.00;99.90
19058;DHT22;9662;53.612;9.914;2022-09-24T02:21:16;15.00;99.90
19058;DHT22;9662;53.612;9.914;2022-09-24T02:23:46;15.00;99.90
19058;DHT22;9662;53.612;9.914;2022-09-24T02:26:13;14.90;99.90
19058;DHT22;9662;53.612;9.914;2022-09-24T02:28:40;14.90;99.90
19058;DHT22;9662;53.612;9.914;2022-09-24T02:31:10;15.00;99.90
19058;DHT22;9662;53.612;9.914;2022-09-24T02:33:41;15.00;99.90
19058;DHT22;9662;53.612;9.914;2022-09-24T02:36:27;14.90;99.90
19058;DHT22;9662;53.612;9.914;2022-09-24T02:38:53;14.90;99.90
19058;DHT22;9662;53.612;9.914;2022-09-24T02:41:21;14.90;99.90
19058;DHT22;9662;53.612;9.914;2022-09-24T02:43:48;14.90;99.90
19058;DHT22;9662;53.612;9.914;2022-09-24T02:46:15;14.90;99.90
19058;DHT22;9662;53.612;9.914;2022-09-24T02:48:43;14.80;99.90
19058;DHT22;9662;53.612;9.914;2022-09-24T02:51:10;14.90;99.90
19058;DHT22;9662;53.612;9.914;2022-09-24T02:53:37;14.90;99.90
19058;DHT22;9662;53.612;9.914;2022-09-24T02:56:04;14.90;99.90
19058;DHT22;9662;53.612;9.914;2022-09-24T02:58:33;14.90;99.90
19058;DHT22;9662;53.612;9.914;2022-09-24T03:01:02;14.90;99.90
19058;DHT22;9662;53.612;9.914;2022-09-24T03:03:29;14.80;99.90
19058;DHT22;9662;53.612;9.914;2022-09-24T03:05:57;14.80;99.90
19058;DHT22;9662;53.612;9.914;2022-09-24T03:08:24;14.80;99.90
19058;DHT22;9662;53.612;9.914;2022-09-24T03:10:51;14.80;99.90
19058;DHT22;9662;53.612;9.914;2022-09-24T03:13:20;14.90;99.90
19058;DHT22;9662;53.612;9.914;2022-09-24T03:15:47;14.90;99.90
19058;DHT22;9662;53.612;9.914;2022-09-24T03:18:14;14.90;99.90
19058;DHT22;9662;53.612;9.914;2022-09-24T03:20:40;14.90;99.90
19058;DHT22;9662;53.612;9.914;2022-09-24T03:23:08;14.90;99.90
19058;DHT22;9662;53.612;9.914;2022-09-24T03:25:35;14.90;99.90
19058;DHT22;9662;53.612;9.914;2022-09-24T03:28:02;14.80;99.90
19058;DHT22;9662;53.612;9.914;2022-09-24T03:30:29;14.90;99.90
19058;DHT22;9662;53.612;9.914;2022-09-24T03:33:21;14.90;99.90
19058;DHT22;9662;53.612;9.914;2022-09-24T03:35:48;14.90;99.90
19058;DHT22;9662;53.612;9.914;2022-09-24T03:38:16;14.90;99.90
19058;DHT22;9662;53.612;9.914;2022-09-24T03:40:42;14.80;99.90
19058;DHT22;9662;53.612;9.914;2022-09-24T03:43:09;14.80;99.90
19058;DHT22;9662;53.612;9.914;2022-09-24T03:45:36;14.80;99.90
19058;DHT22;9662;53.612;9.914;2022-09-24T03:48:03;14.90;99.90
19058;DHT22;9662;53.612;9.914;2022-09-24T03:50:31;14.90;99.90
19058;DHT22;9662;53.612;9.914;2022-09-24T03:52:57;14.90;99.90
19058;DHT22;9662;53.612;9.914;2022-09-24T03:55:25;14.90;99.90
19058;DHT22;9662;53.612;9.914;2022-09-24T03:57:52;14.90;99.90
19058;DHT22;9662;53.612;9.914;2022-09-24T04:00:19;14.90;99.90
19058;DHT22;9662;53.612;9.914;2022-09-24T04:02:46;14.80;99.90
19058;DHT22;9662;53.612;9.914;2022-09-24T04:05:13;14.80;99.90
19058;DHT22;9662;53.612;9.914;2022-09-24T04:07:41;14.80;99.90
19058;DHT22;9662;53.612;9.914;2022-09-24T04:10:08;14.90;99.90
19058;DHT22;9662;53.612;9.914;2022-09-24T04:12:36;14.90;99.90
19058;DHT22;9662;53.612;9.914;2022-09-24T04:15:04;14.90;99.90
19058;DHT22;9662;53.612;9.914;2022-09-24T04:17:30;14.90;99.90
19058;DHT22;9662;53.612;9.914;2022-09-24T04:19:57;14.80;99.90
19058;DHT22;9662;53.612;9.914;2022-09-24T04:22:24;14.90;99.90
19058;DHT22;9662;53.612;9.914;2022-09-24T04:24:52;14.90;99.90
19058;DHT22;9662;53.612;9.914;2022-09-24T04:27:19;14.90;99.90
19058;DHT22;9662;53.612;9.914;2022-09-24T04:29:47;14.90;99.90
19058;DHT22;9662;53.612;9.914;2022-09-24T04:32:14;14.90;99.90
19058;DHT22;9662;53.612;9.914;2022-09-24T04:34:40;14.90;99.90
19058;DHT22;9662;53.612;9.914;2022-09-24T04:37:07;14.90;99.90
19058;DHT22;9662;53.612;9.914;2022-09-24T04:39:34;14.90;99.90
19058;DHT22;9662;53.612;9.914;2022-09-24T04:42:01;14.90;99.90
19058;DHT22;9662;53.612;9.914;2022-09-24T04:44:27;14.90;99.90
19058;DHT22;9662;53.612;9.914;2022-09-24T04:46:56;14.90;99.90
19058;DHT22;9662;53.612;9.914;2022-09-24T04:49:26;14.90;99.90
19058;DHT22;9662;53.612;9.914;2022-09-24T04:51:53;14.90;99.90
19058;DHT22;9662;53.612;9.914;2022-09-24T04:54:22;14.90;99.90
19058;DHT22;9662;53.612;9.914;2022-09-24T04:56:49;14.90;99.90
19058;DHT22;9662;53.612;9.914;2022-09-24T04:59:16;14.90;99.90
19058;DHT22;9662;53.612;9.914;2022-09-24T05:01:43;15.00;99.90
19058;DHT22;9662;53.612;9.914;2022-09-24T05:04:12;15.00;99.90
19058;DHT22;9662;53.612;9.914;2022-09-24T05:06:38;15.00;99.90
19058;DHT22;9662;53.612;9.914;2022-09-24T05:09:06;15.00;99.90
19058;DHT22;9662;53.612;9.914;2022-09-24T05:11:32;15.10;99.90
19058;DHT22;9662;53.612;9.914;2022-09-24T05:13:59;15.00;99.90
19058;DHT22;9662;53.612;9.914;2022-09-24T05:16:26;15.00;99.90
19058;DHT22;9662;53.612;9.914;2022-09-24T05:18:52;15.10;99.90
19058;DHT22;9662;53.612;9.914;2022-09-24T05:21:21;15.10;99.90
19058;DHT22;9662;53.612;9.914;2022-09-24T05:23:47;15.10;99.90
19058;DHT22;9662;53.612;9.914;2022-09-24T05:26:14;15.10;99.90
19058;DHT22;9662;53.612;9.914;2022-09-24T05:28:58;15.10;99.90
19058;DHT22;9662;53.612;9.914;2022-09-24T05:31:25;15.10;99.90
19058;DHT22;9662;53.612;9.914;2022-09-24T05:33:52;15.10;99.90
19058;DHT22;9662;53.612;9.914;2022-09-24T05:36:18;15.10;99.90
19058;DHT22;9662;53.612;9.914;2022-09-24T05:38:46;15.20;99.90
19058;DHT22;9662;53.612;9.914;2022-09-24T05:41:13;15.10;99.90
19058;DHT22;9662;53.612;9.914;2022-09-24T05:43:40;15.20;99.90
19058;DHT22;9662;53.612;9.914;2022-09-24T05:46:06;15.20;99.90
19058;DHT22;9662;53.612;9.914;2022-09-24T05:48:33;15.20;99.90
19058;DHT22;9662;53.612;9.914;2022-09-24T05:51:00;15.10;99.90
19058;DHT22;9662;53.612;9.914;2022-09-24T05:53:26;15.10;99.90
19058;DHT22;9662;53.612;9.914;2022-09-24T05:55:54;15.20;99.90
19058;DHT22;9662;53.612;9.914;2022-09-24T05:58:22;15.20;99.90
19058;DHT22;9662;53.612;9.914;2022-09-24T06:00:49;15.20;99.90
19058;DHT22;9662;53.612;9.914;2022-09-24T06:03:17;15.10;99.90
19058;DHT22;9662;53.612;9.914;2022-09-24T06:05:44;15.10;99.90
19058;DHT22;9662;53.612;9.914;2022-09-24T06:08:13;15.10;99.90
19058;DHT22;9662;53.612;9.914;2022-09-24T06:10:40;15.10;99.90
19058;DHT22;9662;53.612;9.914;2022-09-24T06:13:09;15.20;99.90
19058;DHT22;9662;53.612;9.914;2022-09-24T06:15:36;14.90;99.90
19058;DHT22;9662;53.612;9.914;2022-09-24T06:18:03;14.90;99.90
19058;DHT22;9662;53.612;9.914;2022-09-24T06:20:30;14.90;99.90
19058;DHT22;9662;53.612;9.914;2022-09-24T06:22:57;15.00;99.90
19058;DHT22;9662;53.612;9.914;2022-09-24T06:25:24;15.00;99.90
19058;DHT22;9662;53.612;9.914;2022-09-24T06:27:54;14.80;99.90
19058;DHT22;9662;53.612;9.914;2022-09-24T06:30:27;14.70;99.90
19058;DHT22;9662;53.612;9.914;2022-09-24T06:32:53;14.70;99.90
19058;DHT22;9662;53.612;9.914;2022-09-24T06:35:20;14.20;99.90
19058;DHT22;9662;53.612;9.914;2022-09-24T06:37:47;14.50;99.90
19058;DHT22;9662;53.612;9.914;2022-09-24T06:40:14;14.70;99.90
19058;DHT22;9662;53.612;9.914;2022-09-24T06:42:41;14.80;99.90
19058;DHT22;9662;53.612;9.914;2022-09-24T06:45:09;14.80;99.90
19058;DHT22;9662;53.612;9.914;2022-09-24T06:47:37;14.90;99.90
19058;DHT22;9662;53.612;9.914;2022-09-24T06:50:05;14.70;99.90
19058;DHT22;9662;53.612;9.914;2022-09-24T06:52:32;14.50;99.90
19058;DHT22;9662;53.612;9.914;2022-09-24T06:54:58;14.20;99.90
19058;DHT22;9662;53.612;9.914;2022-09-24T06:57:25;14.40;99.90
19058;DHT22;9662;53.612;9.914;2022-09-24T06:59:52;14.70;99.90
19058;DHT22;9662;53.612;9.914;2022-09-24T07:02:18;14.80;99.90
19058;DHT22;9662;53.612;9.914;2022-09-24T07:04:46;14.80;99.90
19058;DHT22;9662;53.612;9.914;2022-09-24T07:07:13;14.60;99.90
19058;DHT22;9662;53.612;9.914;2022-09-24T07:09:56;14.70;99.90
19058;DHT22;9662;53.612;9.914;2022-09-24T07:12:23;14.70;99.90
19058;DHT22;9662;53.612;9.914;2022-09-24T07:14:50;14.70;99.90
19058;DHT22;9662;53.612;9.914;2022-09-24T07:17:16;14.50;99.90
19058;DHT22;9662;53.612;9.914;2022-09-24T07:19:43;14.50;99.90
19058;DHT22;9662;53.612;9.914;2022-09-24T07:22:11;14.40;99.90
19058;DHT22;9662;53.612;9.914;2022-09-24T07:24:38;14.40;99.90
19058;DHT22;9662;53.612;9.914;2022-09-24T07:27:05;14.30;99.90
19058;DHT22;9662;53.612;9.914;2022-09-24T07:29:32;14.30;99.90
19058;DHT22;9662;53.612;9.914;2022-09-24T07:31:59;14.30;99.90
19058;DHT22;9662;53.612;9.914;2022-09-24T07:34:25;14.00;99.90
19058;DHT22;9662;53.612;9.914;2022-09-24T07:36:54;14.10;99.90
19058;DHT22;9662;53.612;9.914;2022-09-24T07:39:22;14.20;99.90
19058;DHT22;9662;53.612;9.914;2022-09-24T07:41:49;14.20;99.90
19058;DHT22;9662;53.612;9.914;2022-09-24T07:44:16;13.80;99.90
19058;DHT22;9662;53.612;9.914;2022-09-24T07:46:46;14.10;99.90
19058;DHT22;9662;53.612;9.914;2022-09-24T07:49:13;14.30;99.90
19058;DHT22;9662;53.612;9.914;2022-09-24T07:51:40;14.30;99.90
19058;DHT22;9662;53.612;9.914;2022-09-24T07:54:07;14.30;99.90
19058;DHT22;9662;53.612;9.914;2022-09-24T07:56:36;14.40;99.90
19058;DHT22;9662;53.612;9.914;2022-09-24T07:59:03;14.50;99.90
19058;DHT22;9662;53.612;9.914;2022-09-24T08:01:31;14.60;99.90
19058;DHT22;9662;53.612;9.914;2022-09-24T08:03:59;14.40;99.90
19058;DHT22;9662;53.612;9.914;2022-09-24T08:06:26;14.60;99.90
19058;DHT22;9662;53.612;9.914;2022-09-24T08:08:56;14.70;99.90
19058;DHT22;9662;53.612;9.914;2022-09-24T08:11:23;14.70;99.90
19058;DHT22;9662;53.612;9.914;2022-09-24T08:13:51;14.80;99.90
19058;DHT22;9662;53.612;9.914;2022-09-24T08:16:19;14.90;99.90
19058;DHT22;9662;53.612;9.914;2022-09-24T08:18:46;14.90;99.90
19058;DHT22;9662;53.612;9.914;2022-09-24T08:21:13;14.80;99.90
19058;DHT22;9662;53.612;9.914;2022-09-24T08:23:41;14.80;99.90
19058;DHT22;9662;53.612;9.914;2022-09-24T08:26:09;14.80;99.90
19058;DHT22;9662;53.612;9.914;2022-09-24T08:28:37;14.90;99.90
19058;DHT22;9662;53.612;9.914;2022-09-24T08:31:09;14.90;99.90
19058;DHT22;9662;53.612;9.914;2022-09-24T08:33:36;15.00;99.90
19058;DHT22;9662;53.612;9.914;2022-09-24T08:36:06;15.00;99.90
19058;DHT22;9662;53.612;9.914;2022-09-24T08:38:33;14.70;99.90
19058;DHT22;9662;53.612;9.914;2022-09-24T08:41:08;14.90;99.90
19058;DHT22;9662;53.612;9.914;2022-09-24T08:43:48;14.80;99.90
19058;DHT22;9662;53.612;9.914;2022-09-24T08:46:19;15.00;99.90
19058;DHT22;9662;53.612;9.914;2022-09-24T08:49:24;15.10;99.90
19058;DHT22;9662;53.612;9.914;2022-09-24T08:51:59;15.10;99.90
19058;DHT22;9662;53.612;9.914;2022-09-24T08:54:30;14.90;99.90
19058;DHT22;9662;53.612;9.914;2022-09-24T08:57:02;15.10;99.90
19058;DHT22;9662;53.612;9.914;2022-09-24T08:59:33;14.90;99.90
19058;DHT22;9662;53.612;9.914;2022-09-24T09:02:15;14.90;99.90
19058;DHT22;9662;53.612;9.914;2022-09-24T09:04:53;15.10;99.90
19058;DHT22;9662;53.612;9.914;2022-09-24T09:07:25;14.70;99.90
19058;DHT22;9662;53.612;9.914;2022-09-24T09:09:58;15.00;99.90
19058;DHT22;9662;53.612;9.914;2022-09-24T09:12:33;15.10;99.90
19058;DHT22;9662;53.612;9.914;2022-09-24T09:15:03;15.00;99.90
19058;DHT22;9662;53.612;9.914;2022-09-24T09:17:40;15.00;99.90
19058;DHT22;9662;53.612;9.914;2022-09-24T09:20:14;14.60;99.90
19058;DHT22;9662;53.612;9.914;2022-09-24T09:22:45;14.70;99.90
19058;DHT22;9662;53.612;9.914;2022-09-24T09:25:18;14.80;99.90
19058;DHT22;9662;53.612;9.914;2022-09-24T09:27:47;14.80;99.90
19058;DHT22;9662;53.612;9.914;2022-09-24T09:30:17;15.00;99.90
19058;DHT22;9662;53.612;9.914;2022-09-24T09:32:58;14.90;99.90
19058;DHT22;9662;53.612;9.914;2022-09-24T09:35:34;15.00;99.90
19058;DHT22;9662;53.612;9.914;2022-09-24T09:38:07;14.90;99.90
19058;DHT22;9662;53.612;9.914;2022-09-24T09:40:41;15.10;99.90
19058;DHT22;9662;53.612;9.914;2022-09-24T09:43:10;15.00;99.90
19058;DHT22;9662;53.612;9.914;2022-09-24T09:45:42;14.60;99.90
19058;DHT22;9662;53.612;9.914;2022-09-24T09:48:14;14.80;99.90
19058;DHT22;9662;53.612;9.914;2022-09-24T09:50:47;14.90;99.90
19058;DHT22;9662;53.612;9.914;2022-09-24T09:53:18;15.10;99.90
19058;DHT22;9662;53.612;9.914;2022-09-24T09:55:51;15.30;99.90
19058;DHT22;9662;53.612;9.914;2022-09-24T09:58:21;15.40;99.90
19058;DHT22;9662;53.612;9.914;2022-09-24T10:00:48;15.40;99.90
19058;DHT22;9662;53.612;9.914;2022-09-24T10:03:22;15.50;99.90
19058;DHT22;9662;53.612;9.914;2022-09-24T10:05:57;15.50;99.90
19058;DHT22;9662;53.612;9.914;2022-09-24T10:08:24;15.30;99.90
19058;DHT22;9662;53.612;9.914;2022-09-24T10:10:52;15.20;99.90
19058;DHT22;9662;53.612;9.914;2022-09-24T10:13:20;15.30;99.90
19058;DHT22;9662;53.612;9.914;2022-09-24T10:15:48;15.40;99.90
19058;DHT22;9662;53.612;9.914;2022-09-24T10:18:16;15.30;99.90
19058;DHT22;9662;53.612;9.914;2022-09-24T10:20:48;15.40;99.90
19058;DHT22;9662;53.612;9.914;2022-09-24T10:23:19;15.40;99.90
19058;DHT22;9662;53.612;9.914;2022-09-24T10:25:50;15.60;99.90
19058;DHT22;9662;53.612;9.914;2022-09-24T10:28:19;15.50;99.90
19058;DHT22;9662;53.612;9.914;2022-09-24T10:31:05;15.60;99.90
19058;DHT22;9662;53.612;9.914;2022-09-24T10:33:37;15.60;99.90
19058;DHT22;9662;53.612;9.914;2022-09-24T10:36:11;16.00;99.90
19058;DHT22;9662;53.612;9.914;2022-09-24T10:38:39;15.90;99.90
19058;DHT22;9662;53.612;9.914;2022-09-24T10:41:21;16.00;99.90
19058;DHT22;9662;53.612;9.914;2022-09-24T10:43:50;16.20;99.90
19058;DHT22;9662;53.612;9.914;2022-09-24T10:46:31;16.30;99.90
19058;DHT22;9662;53.612;9.914;2022-09-24T10:49:04;16.30;99.90
19058;DHT22;9662;53.612;9.914;2022-09-24T10:51:40;16.30;99.90
19058;DHT22;9662;53.612;9.914;2022-09-24T10:54:22;16.50;99.90
19058;DHT22;9662;53.612;9.914;2022-09-24T10:56:54;16.60;99.90
19058;DHT22;9662;53.612;9.914;2022-09-24T10:59:33;16.20;99.90
19058;DHT22;9662;53.612;9.914;2022-09-24T11:02:26;16.40;99.90
19058;DHT22;9662;53.612;9.914;2022-09-24T11:04:55;16.10;99.90
19058;DHT22;9662;53.612;9.914;2022-09-24T11:07:57;15.90;99.90
19058;DHT22;9662;53.612;9.914;2022-09-24T11:10:42;15.60;99.90
19058;DHT22;9662;53.612;9.914;2022-09-24T11:13:22;15.80;99.90
19058;DHT22;9662;53.612;9.914;2022-09-24T11:16:04;16.00;99.90
19058;DHT22;9662;53.612;9.914;2022-09-24T11:18:42;16.00;99.90
19058;DHT22;9662;53.612;9.914;2022-09-24T11:21:20;16.00;99.90
19058;DHT22;9662;53.612;9.914;2022-09-24T11:24:13;15.90;99.90
19058;DHT22;9662;53.612;9.914;2022-09-24T11:26:55;15.90;99.90
19058;DHT22;9662;53.612;9.914;2022-09-24T11:29:37;15.90;99.90
19058;DHT22;9662;53.612;9.914;2022-09-24T11:32:12;15.70;99.90
19058;DHT22;9662;53.612;9.914;2022-09-24T11:34:59;15.60;99.90
19058;DHT22;9662;53.612;9.914;2022-09-24T11:37:38;15.50;99.90
19058;DHT22;9662;53.612;9.914;2022-09-24T11:43:18;15.80;99.90
19058;DHT22;9662;53.612;9.914;2022-09-24T11:45:58;15.40;99.90
19058;DHT22;9662;53.612;9.914;2022-09-24T11:48:47;15.80;99.90
19058;DHT22;9662;53.612;9.914;2022-09-24T11:51:25;15.80;99.90
19058;DHT22;9662;53.612;9.914;2022-09-24T11:53:57;15.80;99.90
19058;DHT22;9662;53.612;9.914;2022-09-24T11:56:30;15.70;99.90
19058;DHT22;9662;53.612;9.914;2022-09-24T11:59:09;15.90;99.90
19058;DHT22;9662;53.612;9.914;2022-09-24T12:01:42;16.00;99.90
19058;DHT22;9662;53.612;9.914;2022-09-24T12:04:14;16.20;99.90
19058;DHT22;9662;53.612;9.914;2022-09-24T12:06:45;16.40;99.90
19058;DHT22;9662;53.612;9.914;2022-09-24T12:09:20;16.40;99.90
19058;DHT22;9662;53.612;9.914;2022-09-24T12:11:55;16.60;99.90
19058;DHT22;9662;53.612;9.914;2022-09-24T12:14:26;16.60;99.90
19058;DHT22;9662;53.612;9.914;2022-09-24T12:16:59;16.40;99.90
19058;DHT22;9662;53.612;9.914;2022-09-24T12:19:30;16.60;99.90
19058;DHT22;9662;53.612;9.914;2022-09-24T12:22:00;16.50;99.90
19058;DHT22;9662;53.612;9.914;2022-09-24T12:24:32;16.60;99.90
19058;DHT22;9662;53.612;9.914;2022-09-24T12:27:05;16.90;99.90
19058;DHT22;9662;53.612;9.914;2022-09-24T12:29:43;16.90;99.90
19058;DHT22;9662;53.612;9.914;2022-09-24T12:32:35;16.70;99.90
19058;DHT22;9662;53.612;9.914;2022-09-24T12:35:40;17.00;99.90
19058;DHT22;9662;53.612;9.914;2022-09-24T12:38:11;16.70;99.90
19058;DHT22;9662;53.612;9.914;2022-09-24T12:40:58;16.60;99.90
19058;DHT22;9662;53.612;9.914;2022-09-24T12:43:33;16.70;99.90
19058;DHT22;9662;53.612;9.914;2022-09-24T12:46:04;16.50;99.90
19058;DHT22;9662;53.612;9.914;2022-09-24T12:48:35;16.50;99.90
19058;DHT22;9662;53.612;9.914;2022-09-24T12:51:05;16.20;99.90
19058;DHT22;9662;53.612;9.914;2022-09-24T12:53:35;16.50;99.90
19058;DHT22;9662;53.612;9.914;2022-09-24T12:56:04;16.50;99.90
19058;DHT22;9662;53.612;9.914;2022-09-24T12:58:38;16.50;99.90
19058;DHT22;9662;53.612;9.914;2022-09-24T13:01:11;16.40;99.90
19058;DHT22;9662;53.612;9.914;2022-09-24T13:03:39;16.30;99.90
19058;DHT22;9662;53.612;9.914;2022-09-24T13:06:21;16.40;99.90
19058;DHT22;9662;53.612;9.914;2022-09-24T13:08:48;16.40;99.90
19058;DHT22;9662;53.612;9.914;2022-09-24T13:11:30;16.60;99.90
19058;DHT22;9662;53.612;9.914;2022-09-24T13:14:04;16.70;99.90
19058;DHT22;9662;53.612;9.914;2022-09-24T13:16:36;16.80;99.90
19058;DHT22;9662;53.612;9.914;2022-09-24T13:19:22;16.80;99.90
19058;DHT22;9662;53.612;9.914;2022-09-24T13:21:54;16.90;99.90
19058;DHT22;9662;53.612;9.914;2022-09-24T13:24:28;16.70;99.90
19058;DHT22;9662;53.612;9.914;2022-09-24T13:27:08;16.40;99.90
19058;DHT22;9662;53.612;9.914;2022-09-24T13:29:38;16.50;99.90
19058;DHT22;9662;53.612;9.914;2022-09-24T13:32:15;16.60;99.90
19058;DHT22;9662;53.612;9.914;2022-09-24T13:34:44;16.70;99.90
19058;DHT22;9662;53.612;9.914;2022-09-24T13:37:19;16.70;99.90
19058;DHT22;9662;53.612;9.914;2022-09-24T13:39:52;16.70;99.90
19058;DHT22;9662;53.612;9.914;2022-09-24T13:42:33;16.70;99.90
19058;DHT22;9662;53.612;9.914;2022-09-24T13:45:04;16.70;99.90
19058;DHT22;9662;53.612;9.914;2022-09-24T13:47:35;16.70;99.90
19058;DHT22;9662;53.612;9.914;2022-09-24T13:50:07;16.80;99.90
19058;DHT22;9662;53.612;9.914;2022-09-24T13:52:37;16.50;99.90
19058;DHT22;9662;53.612;9.914;2022-09-24T13:55:11;16.40;99.90
19058;DHT22;9662;53.612;9.914;2022-09-24T13:57:42;16.60;99.90
19058;DHT22;9662;53.612;9.914;2022-09-24T14:00:20;16.60;99.90
19058;DHT22;9662;53.612;9.914;2022-09-24T14:02:55;16.60;99.90
19058;DHT22;9662;53.612;9.914;2022-09-24T14:05:23;16.60;99.90
19058;DHT22;9662;53.612;9.914;2022-09-24T14:08:03;16.60;99.90
19058;DHT22;9662;53.612;9.914;2022-09-24T14:10:31;16.70;99.90
19058;DHT22;9662;53.612;9.914;2022-09-24T14:13:04;16.60;99.90
19058;DHT22;9662;53.612;9.914;2022-09-24T14:15:34;16.60;99.90
19058;DHT22;9662;53.612;9.914;2022-09-24T14:18:01;16.40;99.90
19058;DHT22;9662;53.612;9.914;2022-09-24T14:20:32;16.60;99.90
19058;DHT22;9662;53.612;9.914;2022-09-24T14:23:03;16.70;99.90
19058;DHT22;9662;53.612;9.914;2022-09-24T14:25:32;16.50;99.90
19058;DHT22;9662;53.612;9.914;2022-09-24T14:28:01;16.60;99.90
19058;DHT22;9662;53.612;9.914;2022-09-24T14:30:30;16.70;99.90
19058;DHT22;9662;53.612;9.914;2022-09-24T14:33:02;16.20;99.90
19058;DHT22;9662;53.612;9.914;2022-09-24T14:35:31;16.40;99.90
19058;DHT22;9662;53.612;9.914;2022-09-24T14:38:02;16.40;99.90
19058;DHT22;9662;53.612;9.914;2022-09-24T14:40:38;16.30;99.90
19058;DHT22;9662;53.612;9.914;2022-09-24T14:43:14;16.50;99.90
19058;DHT22;9662;53.612;9.914;2022-09-24T14:45:42;16.20;99.90
19058;DHT22;9662;53.612;9.914;2022-09-24T14:48:27;16.50;99.90
19058;DHT22;9662;53.612;9.914;2022-09-24T14:50:54;16.50;99.90
19058;DHT22;9662;53.612;9.914;2022-09-24T14:53:25;16.50;99.90
19058;DHT22;9662;53.612;9.914;2022-09-24T14:55:54;16.40;99.90
19058;DHT22;9662;53.612;9.914;2022-09-24T14:58:23;16.60;99.90
19058;DHT22;9662;53.612;9.914;2022-09-24T15:00:52;16.60;99.90
19058;DHT22;9662;53.612;9.914;2022-09-24T15:03:27;16.60;99.90
19058;DHT22;9662;53.612;9.914;2022-09-24T15:06:06;16.40;99.90
19058;DHT22;9662;53.612;9.914;2022-09-24T15:08:33;16.60;99.90
19058;DHT22;9662;53.612;9.914;2022-09-24T15:11:02;16.50;99.90
19058;DHT22;9662;53.612;9.914;2022-09-24T15:13:31;16.50;99.90
19058;DHT22;9662;53.612;9.914;2022-09-24T15:16:03;16.50;99.90
19058;DHT22;9662;53.612;9.914;2022-09-24T15:18:32;16.60;99.90
19058;DHT22;9662;53.612;9.914;2022-09-24T15:21:00;16.60;99.90
19058;DHT22;9662;53.612;9.914;2022-09-24T15:23:30;16.50;99.90
19058;DHT22;9662;53.612;9.914;2022-09-24T15:25:57;16.50;99.90
19058;DHT22;9662;53.612;9.914;2022-09-24T15:28:24;16.40;99.90
19058;DHT22;9662;53.612;9.914;2022-09-24T15:30:53;16.30;99.90
19058;DHT22;9662;53.612;9.914;2022-09-24T15:33:20;16.50;99.90
19058;DHT22;9662;53.612;9.914;2022-09-24T15:35:48;16.50;99.90
19058;DHT22;9662;53.612;9.914;2022-09-24T15:38:17;16.40;99.90
19058;DHT22;9662;53.612;9.914;2022-09-24T15:40:44;16.60;99.90
19058;DHT22;9662;53.612;9.914;2022-09-24T15:43:18;16.70;99.90
19058;DHT22;9662;53.612;9.914;2022-09-24T15:45:45;16.80;99.90
19058;DHT22;9662;53.612;9.914;2022-09-24T15:48:12;16.80;99.90
19058;DHT22;9662;53.612;9.914;2022-09-24T15:50:39;16.70;99.90
19058;DHT22;9662;53.612;9.914;2022-09-24T15:53:14;16.40;99.90
19058;DHT22;9662;53.612;9.914;2022-09-24T15:55:44;16.30;99.90
19058;DHT22;9662;53.612;9.914;2022-09-24T15:58:14;16.20;99.90
19058;DHT22;9662;53.612;9.914;2022-09-24T16:00:41;16.30;99.90
19058;DHT22;9662;53.612;9.914;2022-09-24T16:03:15;16.40;99.90
19058;DHT22;9662;53.612;9.914;2022-09-24T16:05:43;16.30;99.90
19058;DHT22;9662;53.612;9.914;2022-09-24T16:08:11;16.50;99.90
19058;DHT22;9662;53.612;9.914;2022-09-24T16:10:39;16.70;99.90
19058;DHT22;9662;53.612;9.914;2022-09-24T16:13:07;16.70;99.90